sensor_id;sensor_type;location;lat;lon;timestamp;temperature;humidity
16178;DHT22;8195;51.220;9.746;2023-04-16T00:09:23;8.80;97.20
16178;DHT22;8195;51.220;9.746;2023-04-16T00:19:44;8.90;97.20
16178;DHT22;8195;51.220;9.746;2023-04-16T00:30:13;8.90;97.20
16178;DHT22;8195;51.220;9.746;2023-04-16T00:40:37;8.90;97.20
16178;DHT22;8195;51.220;9.746;2023-04-16T00:51:08;8.80;97.20
16178;DHT22;8195;51.220;9.746;2023-04-16T01:01:38;8.80;97.20
16178;DHT22;8195;51.220;9.746;2023-04-16T01:12:25;8.80;97.20
16178;DHT22;8195;51.220;9.746;2023-04-16T01:22:57;8.80;97.20
16178;DHT22;8195;51.220;9.746;2023-04-16T01:33:21;8.80;97.20
16178;DHT22;8195;51.220;9.746;2023-04-16T01:43:51;8.70;97.20
16178;DHT22;8195;51.220;9.746;2023-04-16T01:54:11;8.70;97.20
16178;DHT22;8195;51.220;9.746;2023-04-16T02:04:33;8.80;97.20
16178;DHT22;8195;51.220;9.746;2023-04-16T02:14:56;8.70;97.20
16178;DHT22;8195;51.220;9.746;2023-04-16T02:25:18;8.70;97.20
16178;DHT22;8195;51.220;9.746;2023-04-16T02:35:48;8.60;97.20
16178;DHT22;8195;51.220;9.746;2023-04-16T02:46:09;8.60;97.20
16178;DHT22;8195;51.220;9.746;2023-04-16T02:56:36;8.60;97.20
16178;DHT22;8195;51.220;9.746;2023-04-16T03:17:34;8.60;97.20
16178;DHT22;8195;51.220;9.746;2023-04-16T03:28:07;8.50;97.20
16178;DHT22;8195;51.220;9.746;2023-04-16T03:38:28;8.50;97.20
16178;DHT22;8195;51.220;9.746;2023-04-16T03:48:51;8.40;97.20
16178;DHT22;8195;51.220;9.746;2023-04-16T03:59:23;8.50;97.20
16178;DHT22;8195;51.220;9.746;2023-04-16T04:09:47;8.40;97.20
16178;DHT22;8195;51.220;9.746;2023-04-16T04:20:14;8.50;97.20
16178;DHT22;8195;51.220;9.746;2023-04-16T04:30:35;8.40;97.20
16178;DHT22;8195;51.220;9.746;2023-04-16T04:41:00;8.40;97.20
16178;DHT22;8195;51.220;9.746;2023-04-16T04:51:31;8.40;97.20
16178;DHT22;8195;51.220;9.746;2023-04-16T05:01:52;8.30;97.20
16178;DHT22;8195;51.220;9.746;2023-04-16T05:12:13;8.30;97.20
16178;DHT22;8195;51.220;9.746;2023-04-16T05:22:34;8.30;97.20
16178;DHT22;8195;51.220;9.746;2023-04-16T05:32:55;8.40;97.20
16178;DHT22;8195;51.220;9.746;2023-04-16T05:43:16;8.30;97.20
16178;DHT22;8195;51.220;9.746;2023-04-16T05:53:37;8.20;97.20
16178;DHT22;8195;51.220;9.746;2023-04-16T06:03:58;8.30;97.20
16178;DHT22;8195;51.220;9.746;2023-04-16T06:14:19;8.30;97.20
16178;DHT22;8195;51.220;9.746;2023-04-16T06:24:40;8.30;97.20
16178;DHT22;8195;51.220;9.746;2023-04-16T06:35:01;8.40;97.20
16178;DHT22;8195;51.220;9.746;2023-04-16T06:45:22;8.40;97.20
16178;DHT22;8195;51.220;9.746;2023-04-16T06:55:43;8.30;97.20
16178;DHT22;8195;51.220;9.746;2023-04-16T07:06:04;8.30;97.20
16178;DHT22;8195;51.220;9.746;2023-04-16T07:16:25;8.40;97.20
16178;DHT22;8195;51.220;9.746;2023-04-16T07:26:46;8.50;97.20
16178;DHT22;8195;51.220;9.746;2023-04-16T07:37:07;8.50;97.20
16178;DHT22;8195;51.220;9.746;2023-04-16T07:47:28;8.50;97.20
16178;DHT22;8195;51.220;9.746;2023-04-16T07:57:49;8.50;97.20
16178;DHT22;8195;51.220;9.746;2023-04-16T08:08:10;8.30;97.20
16178;DHT22;8195;51.220;9.746;2023-04-16T08:18:31;8.40;97.20
16178;DHT22;8195;51.220;9.746;2023-04-16T08:28:52;8.40;97.20
16178;DHT22;8195;51.220;9.746;2023-04-16T08:39:15;8.30;97.20
16178;DHT22;8195;51.220;9.746;2023-04-16T08:49:44;8.30;97.20
16178;DHT22;8195;51.220;9.746;2023-04-16T09:00:07;8.30;97.20
16178;DHT22;8195;51.220;9.746;2023-04-16T09:10:28;8.40;97.20
16178;DHT22;8195;51.220;9.746;2023-04-16T09:20:50;8.40;97.20
16178;DHT22;8195;51.220;9.746;2023-04-16T09:31:16;8.50;97.20
16178;DHT22;8195;51.220;9.746;2023-04-16T09:41:37;8.60;97.20
16178;DHT22;8195;51.220;9.746;2023-04-16T09:52:26;8.50;97.20
16178;DHT22;8195;51.220;9.746;2023-04-16T10:03:08;8.50;97.20
16178;DHT22;8195;51.220;9.746;2023-04-16T10:13:34;8.50;97.20
16178;DHT22;8195;51.220;9.746;2023-04-16T10:34:46;8.60;97.20
16178;DHT22;8195;51.220;9.746;2023-04-16T10:45:28;8.70;97.20
16178;DHT22;8195;51.220;9.746;2023-04-16T10:56:09;8.70;97.20
16178;DHT22;8195;51.220;9.746;2023-04-16T11:06:31;8.80;97.20
16178;DHT22;8195;51.220;9.746;2023-04-16T11:16:52;8.90;97.20
16178;DHT22;8195;51.220;9.746;2023-04-16T11:37:55;9.00;97.20
16178;DHT22;8195;51.220;9.746;2023-04-16T11:48:16;9.00;97.20
16178;DHT22;8195;51.220;9.746;2023-04-16T11:58:40;9.10;97.20
16178;DHT22;8195;51.220;9.746;2023-04-16T12:09:24;9.10;97.20
16178;DHT22;8195;51.220;9.746;2023-04-16T12:19:56;9.20;97.20
16178;DHT22;8195;51.220;9.746;2023-04-16T12:30:20;9.10;97.20
16178;DHT22;8195;51.220;9.746;2023-04-16T12:40:44;9.10;97.20
16178;DHT22;8195;51.220;9.746;2023-04-16T12:51:13;9.10;97.20
16178;DHT22;8195;51.220;9.746;2023-04-16T13:01:34;9.00;97.20
16178;DHT22;8195;51.220;9.746;2023-04-16T13:11:55;9.10;97.20
16178;DHT22;8195;51.220;9.746;2023-04-16T13:22:22;9.10;97.20
16178;DHT22;8195;51.220;9.746;2023-04-16T13:32:43;9.00;97.20
16178;DHT22;8195;51.220;9.746;2023-04-16T13:43:04;9.00;97.20
16178;DHT22;8195;51.220;9.746;2023-04-16T13:53:25;9.10;97.20
16178;DHT22;8195;51.220;9.746;2023-04-16T14:03:53;9.00;97.20
16178;DHT22;8195;51.220;9.746;2023-04-16T14:14:14;9.00;97.20
16178;DHT22;8195;51.220;9.746;2023-04-16T14:25:10;8.90;97.20
16178;DHT22;8195;51.220;9.746;2023-04-16T14:35:31;8.90;97.20
16178;DHT22;8195;51.220;9.746;2023-04-16T14:46:05;8.80;97.20
16178;DHT22;8195;51.220;9.746;2023-04-16T14:56:52;8.90;97.20
16178;DHT22;8195;51.220;9.746;2023-04-16T15:07:13;8.90;97.20
16178;DHT22;8195;51.220;9.746;2023-04-16T15:17:34;8.90;97.20
16178;DHT22;8195;51.220;9.746;2023-04-16T15:27:55;8.90;97.20
16178;DHT22;8195;51.220;9.746;2023-04-16T15:38:17;8.90;97.20
16178;DHT22;8195;51.220;9.746;2023-04-16T15:48:39;8.80;97.20
16178;DHT22;8195;51.220;9.746;2023-04-16T15:58:59;8.80;97.20
16178;DHT22;8195;51.220;9.746;2023-04-16T16:09:21;8.70;97.20
16178;DHT22;8195;51.220;9.746;2023-04-16T16:20:00;8.70;97.20
16178;DHT22;8195;51.220;9.746;2023-04-16T16:30:24;8.70;97.20
16178;DHT22;8195;51.220;9.746;2023-04-16T16:40:45;8.70;97.20
16178;DHT22;8195;51.220;9.746;2023-04-16T16:51:11;8.70;97.20
16178;DHT22;8195;51.220;9.746;2023-04-16T17:01:32;8.70;97.20
16178;DHT22;8195;51.220;9.746;2023-04-16T17:11:53;8.70;97.20
16178;DHT22;8195;51.220;9.746;2023-04-16T17:22:14;8.70;97.20
16178;DHT22;8195;51.220;9.746;2023-04-16T17:32:37;8.60;97.20
16178;DHT22;8195;51.220;9.746;2023-04-16T17:42:59;8.60;97.20
16178;DHT22;8195;51.220;9.746;2023-04-16T17:54:04;8.60;97.20
16178;DHT22;8195;51.220;9.746;2023-04-16T18:04:28;8.60;97.20
16178;DHT22;8195;51.220;9.746;2023-04-16T18:14:50;8.60;97.20
16178;DHT22;8195;51.220;9.746;2023-04-16T18:25:19;8.60;97.20
16178;DHT22;8195;51.220;9.746;2023-04-16T18:35:44;8.60;97.20
16178;DHT22;8195;51.220;9.746;2023-04-16T18:46:11;8.60;97.20
16178;DHT22;8195;51.220;9.746;2023-04-16T18:56:32;8.50;97.20
16178;DHT22;8195;51.220;9.746;2023-04-16T19:06:53;8.50;97.20
16178;DHT22;8195;51.220;9.746;2023-04-16T19:17:35;8.60;97.20
16178;DHT22;8195;51.220;9.746;2023-04-16T19:28:08;8.60;97.20
16178;DHT22;8195;51.220;9.746;2023-04-16T19:38:29;8.60;97.20
16178;DHT22;8195;51.220;9.746;2023-04-16T19:49:08;8.50;97.20
16178;DHT22;8195;51.220;9.746;2023-04-16T19:59:29;8.40;97.20
16178;DHT22;8195;51.220;9.746;2023-04-16T20:09:50;8.40;97.20
16178;DHT22;8195;51.220;9.746;2023-04-16T20:20:14;8.40;97.20
16178;DHT22;8195;51.220;9.746;2023-04-16T20:30:45;8.50;97.20
16178;DHT22;8195;51.220;9.746;2023-04-16T20:41:14;8.40;97.20
16178;DHT22;8195;51.220;9.746;2023-04-16T20:51:39;8.30;97.20
16178;DHT22;8195;51.220;9.746;2023-04-16T21:02:09;8.30;97.20
16178;DHT22;8195;51.220;9.746;2023-04-16T21:12:38;8.40;97.20
16178;DHT22;8195;51.220;9.746;2023-04-16T21:23:28;8.40;97.20
16178;DHT22;8195;51.220;9.746;2023-04-16T21:34:12;8.40;97.20
16178;DHT22;8195;51.220;9.746;2023-04-16T21:56:13;8.40;97.20
16178;DHT22;8195;51.220;9.746;2023-04-16T22:06:18;8.50;97.20
16178;DHT22;8195;51.220;9.746;2023-04-16T22:16:49;8.50;97.20
16178;DHT22;8195;51.220;9.746;2023-04-16T22:27:23;8.50;97.20
16178;DHT22;8195;51.220;9.746;2023-04-16T22:38:01;8.30;97.20
16178;DHT22;8195;51.220;9.746;2023-04-16T22:48:22;8.30;97.20
16178;DHT22;8195;51.220;9.746;2023-04-16T22:58:44;8.10;97.20
16178;DHT22;8195;51.220;9.746;2023-04-16T23:09:05;8.00;97.20
16178;DHT22;8195;51.220;9.746;2023-04-16T23:19:26;8.00;97.20
16178;DHT22;8195;51.220;9.746;2023-04-16T23:29:47;8.00;97.20
16178;DHT22;8195;51.220;9.746;2023-04-16T23:40:08;8.00;97.20
16178;DHT22;8195;51.220;9.746;2023-04-16T23:50:38;7.90;97.20
